Time;durP1;ratioP1;P1;durP2;ratioP2;P2;SDS_P1;SDS_P2;PMS_P1;PMS_P2;Temp;Humidity;BMP_temperature;BMP_pressure;BME280_temperature;BME280_humidity;BME280_pressure;Samples;Min_cycle;Max_cycle;Signal;HPM_P1;HPM_P2
2023/12/30 00:01:20;;;;;;;3.88;1.52;;;;;;;;;;5050905;28;20029;-69
2023/12/30 00:03:47;;;;;;;1.50;1.08;;;;;;;;;;5050367;28;20048;-71
2023/12/30 00:06:15;;;;;;;3.38;1.10;;;;;;;;;;5049529;28;20021;-70
2023/12/30 00:08:41;;;;;;;1.52;1.35;;;;;;;;;;5049348;28;20602;-69
2023/12/30 00:11:07;;;;;;;2.28;1.17;;;;;;;;;;5032179;28;20060;-71
2023/12/30 00:13:33;;;;;;;1.75;1.20;;;;;;;;;;5049771;28;20112;-70
2023/12/30 00:15:59;;;;;;;2.60;1.30;;;;;;;;;;5051090;28;20061;-69
2023/12/30 00:18:24;;;;;;;1.77;1.17;;;;;;;;;;5053164;28;20029;-70
2023/12/30 00:20:50;;;;;;;2.33;1.20;;;;;;;;;;5050603;28;20113;-70
2023/12/30 00:23:17;;;;;;;1.65;1.20;;;;;;;;;;5049002;28;20123;-71
2023/12/30 00:25:43;;;;;;;2.53;1.55;;;;;;;;;;5049906;28;20059;-71
2023/12/30 00:28:09;;;;;;;1.33;1.23;;;;;;;;;;5048716;28;20048;-70
2023/12/30 00:30:35;;;;;;;1.58;1.10;;;;;;;;;;5062911;28;20032;-70
2023/12/30 00:33:00;;;;;;;2.60;2.03;;;;;;;;;;5069646;28;20033;-69
2023/12/30 00:35:26;;;;;;;0.75;0.75;;;;;;;;;;5070077;28;20029;-71
2023/12/30 00:37:53;;;;;;;1.02;0.95;;;;;;;;;;5069770;28;20358;-70
2023/12/30 00:40:18;;;;;;;3.63;1.27;;;;;;;;;;5068602;28;20068;-71
2023/12/30 00:42:44;;;;;;;1.90;1.10;;;;;;;;;;5069537;28;20060;-70
2023/12/30 00:45:10;;;;;;;1.02;0.93;;;;;;;;;;5050037;28;20025;-70
2023/12/30 00:47:35;;;;;;;1.13;1.10;;;;;;;;;;5048682;28;20029;-70
2023/12/30 00:50:01;;;;;;;3.85;1.25;;;;;;;;;;5049458;28;20076;-69
2023/12/30 00:52:26;;;;;;;2.13;1.48;;;;;;;;;;5048441;28;20436;-70
2023/12/30 00:54:52;;;;;;;2.63;1.10;;;;;;;;;;5049410;28;20086;-69
2023/12/30 00:57:18;;;;;;;2.33;1.20;;;;;;;;;;5048475;28;20059;-72
2023/12/30 00:59:43;;;;;;;1.98;1.17;;;;;;;;;;5048043;28;20051;-70
2023/12/30 01:02:09;;;;;;;2.45;1.23;;;;;;;;;;5048167;28;20112;-72
2023/12/30 01:04:35;;;;;;;3.08;1.40;;;;;;;;;;5048930;28;20214;-71
2023/12/30 01:07:00;;;;;;;1.20;1.10;;;;;;;;;;5048239;28;20292;-71
2023/12/30 01:09:26;;;;;;;7.05;1.40;;;;;;;;;;5048631;28;20024;-70
2023/12/30 01:11:52;;;;;;;1.90;1.13;;;;;;;;;;5058178;28;20189;-70
2023/12/30 01:14:17;;;;;;;1.25;1.00;;;;;;;;;;5069014;28;20028;-72
2023/12/30 01:16:43;;;;;;;2.53;1.10;;;;;;;;;;5068615;28;20427;-70
2023/12/30 01:19:08;;;;;;;1.85;1.00;;;;;;;;;;5068558;28;20032;-72
2023/12/30 01:21:34;;;;;;;2.47;1.23;;;;;;;;;;5068415;28;20392;-69
2023/12/30 01:24:01;;;;;;;1.48;1.00;;;;;;;;;;5068055;28;20064;-72
2023/12/30 01:26:26;;;;;;;1.02;0.93;;;;;;;;;;5056645;28;20040;-71
2023/12/30 01:28:52;;;;;;;1.52;1.10;;;;;;;;;;5047562;28;20028;-72
2023/12/30 01:31:18;;;;;;;1.00;0.90;;;;;;;;;;5049416;28;20484;-70
2023/12/30 01:33:44;;;;;;;1.77;1.27;;;;;;;;;;5047906;28;20124;-70
2023/12/30 01:36:13;;;;;;;2.42;1.20;;;;;;;;;;5048071;28;20128;-73
2023/12/30 01:38:40;;;;;;;1.10;0.93;;;;;;;;;;5049431;28;20077;-70
2023/12/30 01:41:06;;;;;;;1.90;1.00;;;;;;;;;;5047920;28;20106;-69
2023/12/30 01:43:31;;;;;;;1.88;1.17;;;;;;;;;;5047818;28;20119;-69
2023/12/30 01:46:00;;;;;;;1.17;1.08;;;;;;;;;;5047303;28;20029;-70
2023/12/30 01:48:27;;;;;;;2.13;1.15;;;;;;;;;;5049396;28;20060;-69
2023/12/30 01:50:57;;;;;;;1.45;1.00;;;;;;;;;;5047318;28;20029;-71
2023/12/30 01:53:24;;;;;;;2.08;1.05;;;;;;;;;;5053524;28;20469;-72
2023/12/30 01:55:51;;;;;;;2.75;1.23;;;;;;;;;;5068860;28;20412;-71
2023/12/30 01:58:20;;;;;;;1.70;1.15;;;;;;;;;;5053376;28;20032;-68
2023/12/30 02:00:48;;;;;;;1.10;1.00;;;;;;;;;;5071444;28;20028;-70
2023/12/30 02:03:15;;;;;;;1.58;1.13;;;;;;;;;;5055032;28;20032;-70
2023/12/30 02:05:41;;;;;;;1.75;1.63;;;;;;;;;;5072512;28;20112;-70
2023/12/30 02:08:08;;;;;;;2.30;1.15;;;;;;;;;;5072323;28;20031;-69
2023/12/30 02:10:35;;;;;;;1.73;1.20;;;;;;;;;;5070945;28;20032;-71
2023/12/30 02:13:00;;;;;;;2.30;1.20;;;;;;;;;;5070991;28;20480;-71
2023/12/30 02:15:26;;;;;;;1.92;1.00;;;;;;;;;;5072438;28;20082;-69
2023/12/30 02:17:55;;;;;;;1.20;1.10;;;;;;;;;;5071276;28;20028;-70
2023/12/30 02:20:20;;;;;;;1.45;1.20;;;;;;;;;;5071764;28;20040;-71
2023/12/30 02:22:47;;;;;;;0.80;0.80;;;;;;;;;;5055610;28;20033;-72
2023/12/30 02:25:14;;;;;;;1.77;1.25;;;;;;;;;;5052087;28;20377;-71
2023/12/30 02:27:41;;;;;;;1.55;1.00;;;;;;;;;;5051990;28;20060;-70
2023/12/30 02:30:07;;;;;;;1.35;0.73;;;;;;;;;;5053721;28;20032;-69
2023/12/30 02:32:33;;;;;;;0.68;0.60;;;;;;;;;;5054130;28;20074;-71
2023/12/30 02:34:58;;;;;;;1.67;0.95;;;;;;;;;;5055321;28;20032;-72
2023/12/30 02:37:24;;;;;;;4.00;1.10;;;;;;;;;;5070296;28;20036;-70
2023/12/30 02:39:49;;;;;;;1.65;1.00;;;;;;;;;;5072024;28;20248;-69
2023/12/30 02:42:15;;;;;;;0.90;0.90;;;;;;;;;;5071857;28;20069;-72
2023/12/30 02:44:42;;;;;;;2.55;1.23;;;;;;;;;;5070602;28;20106;-69
2023/12/30 02:47:07;;;;;;;1.75;1.00;;;;;;;;;;5070303;28;20166;-71
2023/12/30 02:49:34;;;;;;;3.30;1.00;;;;;;;;;;5065255;28;20529;-72
2023/12/30 02:51:59;;;;;;;1.27;0.80;;;;;;;;;;5050066;28;20075;-70
2023/12/30 02:54:27;;;;;;;2.15;0.85;;;;;;;;;;5051689;28;20552;-71
2023/12/30 02:56:53;;;;;;;2.05;0.93;;;;;;;;;;5049902;28;20058;-70
2023/12/30 02:59:19;;;;;;;2.22;0.90;;;;;;;;;;5033430;28;20416;-70
2023/12/30 03:01:44;;;;;;;2.42;1.00;;;;;;;;;;5051560;28;20021;-69
2023/12/30 03:04:10;;;;;;;1.85;0.75;;;;;;;;;;5061402;28;20032;-70
2023/12/30 03:06:35;;;;;;;2.58;1.17;;;;;;;;;;5071485;28;20043;-71
2023/12/30 03:09:03;;;;;;;1.70;0.90;;;;;;;;;;5071244;28;20584;-70
2023/12/30 03:11:30;;;;;;;1.90;1.00;;;;;;;;;;5069836;28;20059;-71
2023/12/30 03:13:57;;;;;;;0.90;0.90;;;;;;;;;;5069689;28;20035;-69
2023/12/30 03:16:23;;;;;;;2.15;0.90;;;;;;;;;;5069945;28;20124;-69
2023/12/30 03:18:48;;;;;;;1.42;0.80;;;;;;;;;;5049924;28;20124;-70
2023/12/30 03:21:16;;;;;;;2.10;1.10;;;;;;;;;;5049926;28;20380;-73
2023/12/30 03:23:42;;;;;;;1.63;1.10;;;;;;;;;;5049953;28;20029;-69
2023/12/30 03:26:09;;;;;;;1.13;0.63;;;;;;;;;;5049713;28;20136;-70
2023/12/30 03:28:36;;;;;;;2.88;0.93;;;;;;;;;;5050184;28;20500;-70
2023/12/30 03:31:01;;;;;;;1.05;1.02;;;;;;;;;;5051573;28;20040;-71
2023/12/30 03:33:27;;;;;;;1.40;1.05;;;;;;;;;;5069870;28;20032;-70
2023/12/30 03:35:54;;;;;;;1.08;0.95;;;;;;;;;;5070965;28;20487;-70
2023/12/30 03:38:21;;;;;;;1.15;0.85;;;;;;;;;;5071538;28;20021;-70
2023/12/30 03:40:48;;;;;;;1.50;1.10;;;;;;;;;;5069781;28;20111;-70
2023/12/30 03:43:14;;;;;;;1.70;1.05;;;;;;;;;;5071517;28;20341;-70
2023/12/30 03:45:40;;;;;;;2.65;1.10;;;;;;;;;;5061355;28;20116;-69
2023/12/30 03:48:06;;;;;;;1.27;1.08;;;;;;;;;;5050947;28;20040;-71
2023/12/30 03:50:32;;;;;;;2.22;1.10;;;;;;;;;;5049106;28;20351;-70
2023/12/30 03:52:57;;;;;;;1.17;0.88;;;;;;;;;;5049661;28;20075;-69
2023/12/30 03:55:23;;;;;;;1.77;1.15;;;;;;;;;;5050748;28;20028;-71
2023/12/30 03:57:49;;;;;;;1.67;1.05;;;;;;;;;;5049222;28;20495;-71
2023/12/30 04:00:15;;;;;;;3.95;1.08;;;;;;;;;;5063065;28;20536;-69
2023/12/30 04:02:40;;;;;;;1.85;1.08;;;;;;;;;;5070443;28;20550;-69
2023/12/30 04:05:07;;;;;;;0.95;0.90;;;;;;;;;;5068582;28;20396;-70
2023/12/30 04:07:33;;;;;;;1.45;1.10;;;;;;;;;;5069028;28;20090;-70
2023/12/30 04:09:59;;;;;;;1.48;0.88;;;;;;;;;;5068965;28;20505;-69
2023/12/30 04:12:25;;;;;;;2.05;1.10;;;;;;;;;;5068602;28;20052;-71
2023/12/30 04:14:51;;;;;;;3.70;1.00;;;;;;;;;;5054836;28;20067;-73
2023/12/30 04:17:17;;;;;;;1.52;0.95;;;;;;;;;;5032291;28;20040;-68
2023/12/30 04:19:43;;;;;;;3.33;1.38;;;;;;;;;;5048939;28;20045;-69
2023/12/30 04:22:08;;;;;;;3.15;1.15;;;;;;;;;;5048965;28;20092;-70
2023/12/30 04:24:34;;;;;;;2.08;0.98;;;;;;;;;;5050032;28;20025;-71
2023/12/30 04:27:00;;;;;;;3.15;0.82;;;;;;;;;;5052741;28;20056;-69
2023/12/30 04:29:28;;;;;;;1.33;0.98;;;;;;;;;;5051127;28;20029;-71
2023/12/30 04:31:54;;;;;;;2.03;0.95;;;;;;;;;;5048209;28;20469;-70
2023/12/30 04:34:21;;;;;;;1.25;0.95;;;;;;;;;;5032027;28;20086;-69
2023/12/30 04:36:47;;;;;;;1.67;0.95;;;;;;;;;;5050100;28;20029;-70
2023/12/30 04:39:13;;;;;;;1.35;0.90;;;;;;;;;;5049558;28;20056;-70
2023/12/30 04:41:40;;;;;;;1.30;1.10;;;;;;;;;;5054846;28;20033;-71
2023/12/30 04:44:05;;;;;;;2.80;1.00;;;;;;;;;;5068025;28;20082;-69
2023/12/30 04:46:33;;;;;;;3.88;1.00;;;;;;;;;;5068157;28;20032;-71
2023/12/30 04:49:02;;;;;;;1.45;0.90;;;;;;;;;;5069615;28;20039;-68
2023/12/30 04:51:29;;;;;;;1.88;1.00;;;;;;;;;;5068301;28;20028;-70
2023/12/30 04:53:56;;;;;;;0.85;0.82;;;;;;;;;;5069198;28;20099;-70
2023/12/30 04:56:21;;;;;;;1.55;1.00;;;;;;;;;;5058483;28;20044;-70
2023/12/30 04:58:47;;;;;;;2.85;1.00;;;;;;;;;;5049652;28;20052;-71
2023/12/30 05:01:15;;;;;;;1.15;0.70;;;;;;;;;;5049556;28;20045;-70
2023/12/30 05:03:42;;;;;;;5.88;0.98;;;;;;;;;;5047964;28;20025;-70
2023/12/30 05:06:08;;;;;;;1.88;0.90;;;;;;;;;;5048251;28;20029;-69
2023/12/30 05:08:36;;;;;;;0.95;0.80;;;;;;;;;;5048236;28;20035;-70
2023/12/30 05:11:06;;;;;;;1.52;0.95;;;;;;;;;;5064925;28;20052;-68
2023/12/30 05:13:32;;;;;;;2.88;1.00;;;;;;;;;;5069401;28;20028;-70
2023/12/30 05:16:00;;;;;;;1.67;1.17;;;;;;;;;;5067634;28;20163;-71
2023/12/30 05:18:25;;;;;;;2.35;1.25;;;;;;;;;;5067729;28;20032;-70
2023/12/30 05:20:52;;;;;;;1.75;1.00;;;;;;;;;;5067912;28;20400;-70
2023/12/30 05:23:18;;;;;;;2.90;0.85;;;;;;;;;;5065245;28;20055;-70
2023/12/30 05:25:43;;;;;;;1.73;1.33;;;;;;;;;;5049309;28;20025;-70
2023/12/30 05:28:10;;;;;;;6.50;1.20;;;;;;;;;;5047580;28;20033;-70
2023/12/30 05:30:36;;;;;;;2.15;1.42;;;;;;;;;;5047922;28;20127;-71
2023/12/30 05:33:01;;;;;;;1.25;0.95;;;;;;;;;;5050648;28;20374;-70
2023/12/30 05:35:27;;;;;;;2.17;0.80;;;;;;;;;;5051749;28;20033;-72
2023/12/30 05:37:53;;;;;;;3.25;1.10;;;;;;;;;;5061421;28;20094;-70
2023/12/30 05:40:20;;;;;;;2.75;1.30;;;;;;;;;;5072842;28;20036;-69
2023/12/30 05:42:45;;;;;;;1.83;1.00;;;;;;;;;;5073131;28;20024;-70
2023/12/30 05:45:12;;;;;;;1.80;0.88;;;;;;;;;;5072097;28;20043;-70
2023/12/30 05:47:37;;;;;;;0.85;0.85;;;;;;;;;;5065932;28;20025;-70
2023/12/30 05:50:03;;;;;;;1.13;1.02;;;;;;;;;;5051351;28;20397;-69
2023/12/30 05:52:29;;;;;;;3.72;1.20;;;;;;;;;;5052866;28;20445;-69
2023/12/30 05:54:55;;;;;;;1.92;1.05;;;;;;;;;;5052761;28;20104;-71
2023/12/30 05:57:20;;;;;;;2.22;1.20;;;;;;;;;;5051368;28;20029;-70
2023/12/30 05:59:46;;;;;;;1.33;0.93;;;;;;;;;;5069918;28;20064;-69
2023/12/30 06:02:12;;;;;;;1.15;0.93;;;;;;;;;;5071336;28;20024;-71
2023/12/30 06:04:41;;;;;;;3.60;1.35;;;;;;;;;;5054299;28;20137;-69
2023/12/30 06:07:08;;;;;;;2.60;1.30;;;;;;;;;;5072403;28;20029;-70
2023/12/30 06:09:33;;;;;;;2.78;0.85;;;;;;;;;;5071331;28;20392;-71
2023/12/30 06:11:59;;;;;;;0.95;0.90;;;;;;;;;;5069779;28;20033;-69
2023/12/30 06:14:26;;;;;;;2.38;0.88;;;;;;;;;;5071035;28;20025;-70
2023/12/30 06:16:51;;;;;;;2.75;1.42;;;;;;;;;;5072906;28;20062;-68
2023/12/30 06:19:19;;;;;;;1.75;0.88;;;;;;;;;;5070966;28;20482;-71
2023/12/30 06:21:44;;;;;;;0.93;0.75;;;;;;;;;;5072427;28;20096;-69
2023/12/30 06:24:10;;;;;;;3.45;1.27;;;;;;;;;;5071795;28;20099;-69
2023/12/30 06:26:42;;;;;;;1.33;0.93;;;;;;;;;;5060727;28;20419;-70
2023/12/30 06:29:09;;;;;;;5.18;1.25;;;;;;;;;;5050841;28;20029;-68
2023/12/30 06:31:40;;;;;;;4.00;1.05;;;;;;;;;;5050826;28;20037;-70
2023/12/30 06:34:06;;;;;;;2.03;1.35;;;;;;;;;;5050954;28;20135;-69
2023/12/30 06:36:31;;;;;;;1.75;1.00;;;;;;;;;;5050510;28;20137;-71
2023/12/30 06:38:57;;;;;;;1.40;1.00;;;;;;;;;;5050803;28;20052;-72
2023/12/30 06:41:22;;;;;;;1.77;1.17;;;;;;;;;;5054051;28;20431;-71
2023/12/30 06:43:48;;;;;;;1.05;0.98;;;;;;;;;;5050729;28;20554;-70
2023/12/30 06:46:14;;;;;;;2.17;1.23;;;;;;;;;;5051707;28;20513;-70
2023/12/30 06:48:39;;;;;;;1.00;0.98;;;;;;;;;;5051597;28;20024;-70
2023/12/30 06:51:10;;;;;;;3.28;1.20;;;;;;;;;;5050910;28;20104;-68
2023/12/30 06:53:36;;;;;;;3.53;1.20;;;;;;;;;;5034331;28;20024;-71
2023/12/30 06:56:03;;;;;;;2.95;1.13;;;;;;;;;;5070175;28;20035;-69
2023/12/30 06:58:29;;;;;;;2.25;1.20;;;;;;;;;;5053367;28;20032;-72
2023/12/30 07:00:56;;;;;;;2.38;0.90;;;;;;;;;;5070337;28;20033;-72
2023/12/30 07:03:21;;;;;;;2.22;1.58;;;;;;;;;;5052661;28;20132;-69
2023/12/30 07:05:47;;;;;;;1.13;0.90;;;;;;;;;;5069446;28;20599;-68
2023/12/30 07:08:13;;;;;;;3.53;0.95;;;;;;;;;;5065277;28;20048;-70
2023/12/30 07:10:39;;;;;;;1.47;0.67;;;;;;;;;;5049272;28;20053;-70
2023/12/30 07:13:06;;;;;;;1.27;0.85;;;;;;;;;;5049271;28;20400;-69
2023/12/30 07:15:32;;;;;;;1.75;0.93;;;;;;;;;;5049284;28;20033;-71
2023/12/30 07:17:57;;;;;;;1.43;0.67;;;;;;;;;;5049507;28;20318;-70
2023/12/30 07:20:25;;;;;;;2.03;0.90;;;;;;;;;;5049244;28;20043;-69
2023/12/30 07:22:51;;;;;;;2.45;1.00;;;;;;;;;;5062141;28;20033;-68
2023/12/30 07:25:17;;;;;;;3.08;0.90;;;;;;;;;;5070692;28;20384;-69
2023/12/30 07:27:42;;;;;;;2.65;1.10;;;;;;;;;;5071428;28;20078;-69
2023/12/30 07:30:08;;;;;;;1.73;1.08;;;;;;;;;;5071026;28;20047;-70
2023/12/30 07:32:34;;;;;;;1.67;0.90;;;;;;;;;;5069648;28;20107;-70
2023/12/30 07:34:59;;;;;;;2.78;1.15;;;;;;;;;;5069117;28;20485;-69
2023/12/30 07:37:27;;;;;;;1.95;0.90;;;;;;;;;;5066912;28;20115;-69
2023/12/30 07:39:53;;;;;;;3.47;1.10;;;;;;;;;;5070609;28;20078;-70
2023/12/30 07:42:19;;;;;;;3.53;1.15;;;;;;;;;;5069217;28;20025;-70
2023/12/30 07:44:44;;;;;;;3.60;1.95;;;;;;;;;;5069784;28;20066;-71
2023/12/30 07:47:10;;;;;;;1.30;1.05;;;;;;;;;;5070135;28;20108;-69
2023/12/30 07:49:37;;;;;;;3.33;1.10;;;;;;;;;;5066316;28;20032;-69
2023/12/30 07:52:03;;;;;;;4.63;1.05;;;;;;;;;;5050298;28;20025;-70
2023/12/30 07:54:28;;;;;;;2.08;1.10;;;;;;;;;;5050184;28;20047;-72
2023/12/30 07:56:54;;;;;;;5.45;1.50;;;;;;;;;;5049782;28;20033;-69
2023/12/30 07:59:20;;;;;;;2.42;1.10;;;;;;;;;;5048549;28;20485;-70
2023/12/30 08:01:45;;;;;;;3.65;1.25;;;;;;;;;;5048880;28;20068;-69
2023/12/30 08:04:11;;;;;;;2.25;1.10;;;;;;;;;;5054735;28;20518;-68
2023/12/30 08:06:40;;;;;;;4.72;1.15;;;;;;;;;;5068793;28;20107;-70
2023/12/30 08:09:06;;;;;;;1.35;0.98;;;;;;;;;;5068725;28;20028;-68
2023/12/30 08:11:34;;;;;;;1.83;1.20;;;;;;;;;;5068138;28;20151;-69
2023/12/30 08:14:00;;;;;;;1.13;0.90;;;;;;;;;;5068811;28;20036;-71
2023/12/30 08:16:26;;;;;;;3.15;1.35;;;;;;;;;;5068360;28;20082;-71
2023/12/30 08:18:51;;;;;;;4.63;0.90;;;;;;;;;;5057133;28;20056;-69
2023/12/30 08:21:17;;;;;;;1.17;1.00;;;;;;;;;;5048226;28;20029;-68
2023/12/30 08:23:42;;;;;;;0.95;0.80;;;;;;;;;;5049759;28;20471;-71
2023/12/30 08:26:08;;;;;;;2.50;0.90;;;;;;;;;;5048269;28;20033;-69
2023/12/30 08:28:33;;;;;;;1.85;1.00;;;;;;;;;;5048216;28;20116;-70
2023/12/30 08:31:01;;;;;;;1.35;1.13;;;;;;;;;;5049530;28;20031;-69
2023/12/30 08:33:27;;;;;;;3.72;0.60;;;;;;;;;;5048090;28;20024;-68
2023/12/30 08:35:52;;;;;;;1.65;0.70;;;;;;;;;;5049221;28;20099;-70
2023/12/30 08:38:19;;;;;;;2.63;1.00;;;;;;;;;;5049718;28;20027;-70
2023/12/30 08:40:46;;;;;;;0.93;0.70;;;;;;;;;;5047956;28;20032;-71
2023/12/30 08:43:12;;;;;;;0.85;0.82;;;;;;;;;;5050063;28;20094;-70
2023/12/30 08:45:38;;;;;;;2.00;1.00;;;;;;;;;;5050939;28;20366;-69
2023/12/30 08:48:04;;;;;;;1.05;0.80;;;;;;;;;;5034254;28;20029;-69
2023/12/30 08:50:33;;;;;;;1.50;0.70;;;;;;;;;;5047536;28;20060;-69
2023/12/30 08:52:59;;;;;;;1.08;0.80;;;;;;;;;;5050311;28;20047;-69
2023/12/30 08:55:24;;;;;;;5.43;1.10;;;;;;;;;;5049173;28;20477;-70
2023/12/30 08:57:50;;;;;;;1.48;0.75;;;;;;;;;;5049898;28;20021;-68
2023/12/30 09:00:16;;;;;;;3.30;1.10;;;;;;;;;;5055591;28;20024;-70
2023/12/30 09:02:46;;;;;;;3.47;0.80;;;;;;;;;;5071002;28;20044;-68
2023/12/30 09:05:17;;;;;;;2.33;0.95;;;;;;;;;;5068589;28;20460;-68
2023/12/30 09:07:44;;;;;;;4.18;1.00;;;;;;;;;;5067776;28;20028;-71
2023/12/30 09:10:10;;;;;;;2.53;1.00;;;;;;;;;;5067136;28;20021;-69
2023/12/30 09:12:35;;;;;;;1.88;1.02;;;;;;;;;;5066928;28;20048;-69
2023/12/30 09:15:01;;;;;;;1.52;1.27;;;;;;;;;;5056882;28;20037;-68
2023/12/30 09:17:26;;;;;;;1.70;0.80;;;;;;;;;;5048460;28;20474;-70
2023/12/30 09:19:52;;;;;;;1.63;0.90;;;;;;;;;;5047367;28;20182;-70
2023/12/30 09:22:17;;;;;;;0.77;0.63;;;;;;;;;;5046800;28;20021;-69
2023/12/30 09:24:45;;;;;;;1.65;0.90;;;;;;;;;;5046999;28;20028;-68
2023/12/30 09:27:10;;;;;;;1.65;1.05;;;;;;;;;;5047056;28;20389;-69
2023/12/30 09:29:36;;;;;;;3.78;0.80;;;;;;;;;;5047578;28;20036;-68
2023/12/30 09:32:02;;;;;;;1.52;0.63;;;;;;;;;;5047050;28;20029;-71
2023/12/30 09:34:29;;;;;;;1.95;1.02;;;;;;;;;;5047144;28;20033;-69
2023/12/30 09:36:54;;;;;;;3.53;0.70;;;;;;;;;;5047341;28;20291;-70
2023/12/30 09:39:20;;;;;;;2.03;0.88;;;;;;;;;;5046939;28;20025;-69
2023/12/30 09:41:45;;;;;;;1.15;0.90;;;;;;;;;;5048656;28;20388;-69
2023/12/30 09:44:12;;;;;;;3.55;0.93;;;;;;;;;;5068174;28;20425;-67
2023/12/30 09:46:40;;;;;;;3.53;1.10;;;;;;;;;;5067427;28;20028;-69
2023/12/30 09:49:07;;;;;;;2.75;0.90;;;;;;;;;;5067294;28;20024;-68
2023/12/30 09:51:33;;;;;;;1.45;0.77;;;;;;;;;;5066813;28;20025;-70
2023/12/30 09:53:59;;;;;;;3.13;0.80;;;;;;;;;;5068635;28;20025;-68
2023/12/30 09:56:26;;;;;;;3.05;0.85;;;;;;;;;;5062696;28;20104;-69
2023/12/30 09:58:54;;;;;;;3.15;0.90;;;;;;;;;;5047400;28;20477;-68
2023/12/30 10:01:21;;;;;;;3.15;1.08;;;;;;;;;;5047075;28;20021;-70
2023/12/30 10:03:47;;;;;;;0.75;0.70;;;;;;;;;;5047198;28;20490;-68
2023/12/30 10:06:17;;;;;;;0.73;0.55;;;;;;;;;;5048570;28;20062;-69
2023/12/30 10:08:43;;;;;;;1.10;0.70;;;;;;;;;;5049143;28;20108;-69
2023/12/30 10:11:10;;;;;;;3.08;0.80;;;;;;;;;;5057925;28;20123;-70
2023/12/30 10:13:37;;;;;;;1.00;0.80;;;;;;;;;;5067275;28;20539;-70
2023/12/30 10:16:05;;;;;;;1.77;0.68;;;;;;;;;;5067080;28;20491;-68
2023/12/30 10:18:37;;;;;;;2.63;0.95;;;;;;;;;;5067639;28;20553;-69
2023/12/30 10:21:06;;;;;;;2.85;0.60;;;;;;;;;;5070742;28;20024;-68
2023/12/30 10:23:33;;;;;;;0.60;0.60;;;;;;;;;;5071483;28;20028;-69
2023/12/30 10:26:00;;;;;;;2.70;0.60;;;;;;;;;;5058323;28;20036;-70
2023/12/30 10:28:27;;;;;;;2.05;0.70;;;;;;;;;;5050132;28;20021;-69
2023/12/30 10:31:05;;;;;;;3.47;1.20;;;;;;;;;;5050457;28;20036;-69
2023/12/30 10:33:33;;;;;;;3.88;0.90;;;;;;;;;;5050789;28;20024;-70
2023/12/30 10:35:59;;;;;;;1.45;0.70;;;;;;;;;;5034762;28;20043;-69
2023/12/30 10:38:25;;;;;;;2.30;0.57;;;;;;;;;;5050653;28;20036;-68
2023/12/30 10:40:51;;;;;;;1.45;1.08;;;;;;;;;;5070416;28;20024;-69
2023/12/30 10:43:20;;;;;;;2.00;0.70;;;;;;;;;;5070324;28;20025;-70
2023/12/30 10:45:59;;;;;;;1.80;1.20;;;;;;;;;;5071719;28;20051;-68
2023/12/30 10:48:31;;;;;;;3.20;0.90;;;;;;;;;;5071734;28;20112;-68
2023/12/30 10:50:58;;;;;;;1.23;0.85;;;;;;;;;;5053616;28;20028;-70
2023/12/30 10:53:29;;;;;;;1.02;0.70;;;;;;;;;;5071128;28;20054;-70
2023/12/30 10:56:00;;;;;;;2.67;1.15;;;;;;;;;;5071902;28;20107;-70
2023/12/30 10:58:27;;;;;;;1.10;1.00;;;;;;;;;;5070930;28;20039;-70
2023/12/30 11:01:02;;;;;;;1.63;0.98;;;;;;;;;;5070531;28;20090;-70
2023/12/30 11:03:31;;;;;;;1.55;0.98;;;;;;;;;;5072278;28;20388;-69
2023/12/30 11:06:04;;;;;;;1.45;0.90;;;;;;;;;;5072629;28;20510;-70
2023/12/30 11:08:30;;;;;;;1.23;0.73;;;;;;;;;;5067975;28;20028;-71
2023/12/30 11:11:01;;;;;;;3.80;0.85;;;;;;;;;;5070838;28;20378;-67
2023/12/30 11:13:33;;;;;;;1.65;1.02;;;;;;;;;;5070918;28;20031;-69
2023/12/30 11:16:15;;;;;;;2.30;0.93;;;;;;;;;;5069760;28;20111;-69
2023/12/30 11:18:49;;;;;;;2.25;0.90;;;;;;;;;;5070707;28;20025;-67
2023/12/30 11:21:38;;;;;;;3.55;0.90;;;;;;;;;;5068909;28;20025;-69
2023/12/30 11:24:07;;;;;;;3.33;1.20;;;;;;;;;;5051540;28;20103;-68
2023/12/30 11:26:40;;;;;;;1.58;0.75;;;;;;;;;;5051129;28;20040;-69
2023/12/30 11:29:10;;;;;;;2.80;0.98;;;;;;;;;;5049495;28;20061;-69
2023/12/30 11:31:37;;;;;;;3.47;1.10;;;;;;;;;;5033095;28;20041;-69
2023/12/30 11:34:04;;;;;;;5.53;1.00;;;;;;;;;;5049885;28;20029;-69
2023/12/30 11:36:30;;;;;;;1.48;1.00;;;;;;;;;;5062205;28;20020;-69
2023/12/30 11:38:58;;;;;;;1.58;0.77;;;;;;;;;;5070721;28;20031;-71
2023/12/30 11:41:25;;;;;;;4.13;0.82;;;;;;;;;;5068830;28;20105;-70
2023/12/30 11:43:51;;;;;;;2.13;0.70;;;;;;;;;;5068983;28;20021;-70
2023/12/30 11:46:17;;;;;;;3.97;0.90;;;;;;;;;;5052122;28;20485;-71
2023/12/30 11:48:44;;;;;;;2.85;1.10;;;;;;;;;;5069134;28;20346;-70
2023/12/30 11:51:10;;;;;;;2.70;1.10;;;;;;;;;;5049119;28;20473;-69
2023/12/30 11:53:35;;;;;;;1.38;0.80;;;;;;;;;;5050428;28;20184;-68
2023/12/30 11:56:02;;;;;;;1.58;0.73;;;;;;;;;;5050210;28;20210;-68
2023/12/30 11:58:30;;;;;;;2.92;1.02;;;;;;;;;;5049465;28;20394;-69
2023/12/30 12:00:56;;;;;;;4.75;0.90;;;;;;;;;;5050071;28;20025;-69
2023/12/30 12:03:22;;;;;;;4.05;1.00;;;;;;;;;;5057155;28;20033;-70
2023/12/30 12:05:49;;;;;;;1.50;0.88;;;;;;;;;;5069858;28;20042;-70
2023/12/30 12:08:15;;;;;;;3.05;0.73;;;;;;;;;;5068999;28;20512;-72
2023/12/30 12:10:40;;;;;;;1.27;0.50;;;;;;;;;;5068148;28;20340;-71
2023/12/30 12:13:09;;;;;;;1.88;1.10;;;;;;;;;;5068465;28;20039;-69
2023/12/30 12:15:35;;;;;;;2.95;0.80;;;;;;;;;;5069756;28;20029;-69
2023/12/30 12:18:01;;;;;;;2.40;0.55;;;;;;;;;;5067630;28;20034;-69
2023/12/30 12:20:26;;;;;;;1.30;0.70;;;;;;;;;;5049675;28;20048;-69
2023/12/30 12:22:55;;;;;;;1.80;0.90;;;;;;;;;;5048375;28;20029;-68
2023/12/30 12:25:22;;;;;;;1.98;0.90;;;;;;;;;;5048454;28;20397;-69
2023/12/30 12:27:48;;;;;;;3.45;0.95;;;;;;;;;;5048155;28;20143;-68
2023/12/30 12:30:15;;;;;;;2.25;0.70;;;;;;;;;;5048191;28;20051;-69
2023/12/30 12:32:41;;;;;;;0.93;0.63;;;;;;;;;;5049347;28;20421;-69
2023/12/30 12:35:07;;;;;;;2.67;0.82;;;;;;;;;;5048258;28;20037;-69
2023/12/30 12:37:33;;;;;;;4.03;1.50;;;;;;;;;;5049278;28;20040;-68
2023/12/30 12:40:00;;;;;;;3.55;0.73;;;;;;;;;;5048153;28;20567;-68
2023/12/30 12:42:25;;;;;;;6.32;0.85;;;;;;;;;;5047345;28;20448;-68
2023/12/30 12:44:51;;;;;;;2.08;0.82;;;;;;;;;;5049640;28;20025;-69
2023/12/30 12:47:17;;;;;;;4.38;0.75;;;;;;;;;;5049663;28;20025;-69
2023/12/30 12:49:43;;;;;;;1.17;1.08;;;;;;;;;;5053794;28;20029;-69
2023/12/30 12:52:08;;;;;;;0.68;0.50;;;;;;;;;;5069442;28;20024;-69
2023/12/30 12:54:34;;;;;;;1.67;0.82;;;;;;;;;;5049809;28;20098;-69
2023/12/30 12:57:00;;;;;;;0.65;0.63;;;;;;;;;;5047599;28;20021;-69
2023/12/30 12:59:26;;;;;;;1.90;0.90;;;;;;;;;;5047409;28;20032;-70
2023/12/30 13:01:52;;;;;;;6.07;1.00;;;;;;;;;;5047593;28;20067;-69
2023/12/30 13:04:18;;;;;;;2.45;0.60;;;;;;;;;;5031187;28;20110;-68
2023/12/30 13:06:46;;;;;;;0.40;0.40;;;;;;;;;;5047925;28;20151;-69
2023/12/30 13:11:56;;;;;;;1.25;0.77;;;;;;;;;;5068853;28;20109;-69
2023/12/30 13:14:26;;;;;;;4.03;1.02;;;;;;;;;;5067079;28;20047;-70
2023/12/30 13:16:57;;;;;;;3.25;0.70;;;;;;;;;;5067385;28;20043;-68
2023/12/30 13:19:22;;;;;;;2.30;0.73;;;;;;;;;;5068775;28;20070;-69
2023/12/30 13:21:50;;;;;;;2.08;0.65;;;;;;;;;;5056003;28;20102;-68
2023/12/30 13:24:16;;;;;;;0.80;0.57;;;;;;;;;;5048987;28;20102;-72
2023/12/30 13:26:45;;;;;;;1.83;0.80;;;;;;;;;;5047735;28;20125;-70
2023/12/30 13:29:11;;;;;;;0.60;0.60;;;;;;;;;;5047528;28;20083;-70
2023/12/30 13:31:43;;;;;;;0.98;0.68;;;;;;;;;;5047603;28;20036;-69
2023/12/30 13:34:09;;;;;;;1.23;0.77;;;;;;;;;;5047553;28;20090;-69
2023/12/30 13:36:35;;;;;;;5.60;1.08;;;;;;;;;;5050500;28;20111;-69
2023/12/30 13:39:39;;;;;;;3.40;0.88;;;;;;;;;;5067276;28;20548;-71
2023/12/30 13:41:56;;;;;;;3.92;0.77;;;;;;;;;;5067943;28;20040;-71
2023/12/30 13:44:22;;;;;;;1.65;0.70;;;;;;;;;;5068895;28;20024;-70
2023/12/30 13:52:19;;;;;;;1.08;0.60;;;;;;;;;;5068894;28;20365;-69
2023/12/30 13:54:45;;;;;;;2.20;1.42;;;;;;;;;;5071603;28;20445;-69
2023/12/30 13:57:20;;;;;;;1.95;1.52;;;;;;;;;;5072773;28;20519;-70
2023/12/30 13:59:46;;;;;;;2.05;0.93;;;;;;;;;;5071554;28;20078;-69
2023/12/30 14:02:16;;;;;;;0.93;0.70;;;;;;;;;;5052334;28;20052;-68
2023/12/30 14:04:41;;;;;;;0.75;0.55;;;;;;;;;;5051302;28;20029;-68
2023/12/30 14:07:14;;;;;;;0.50;0.50;;;;;;;;;;5052919;28;20025;-69
2023/12/30 14:12:06;;;;;;;3.33;0.77;;;;;;;;;;5053333;28;20045;-70
2023/12/30 14:14:42;;;;;;;2.67;0.98;;;;;;;;;;5060977;28;20025;-71
2023/12/30 14:17:08;;;;;;;1.35;0.73;;;;;;;;;;5073060;28;20074;-68
2023/12/30 14:19:34;;;;;;;3.20;0.80;;;;;;;;;;5072333;28;20031;-67
2023/12/30 14:21:59;;;;;;;2.88;0.90;;;;;;;;;;5072218;28;20028;-68
2023/12/30 14:24:25;;;;;;;2.33;0.77;;;;;;;;;;5070635;28;20031;-69
2023/12/30 14:26:51;;;;;;;2.20;1.08;;;;;;;;;;5071021;28;20063;-69
2023/12/30 14:29:16;;;;;;;1.52;0.93;;;;;;;;;;5070911;28;20082;-68
2023/12/30 14:31:42;;;;;;;1.38;0.60;;;;;;;;;;5070461;28;20039;-70
2023/12/30 14:34:09;;;;;;;1.92;0.73;;;;;;;;;;5070710;28;20074;-69
2023/12/30 14:36:35;;;;;;;1.13;0.88;;;;;;;;;;5070408;28;20409;-68
2023/12/30 14:39:03;;;;;;;2.83;0.77;;;;;;;;;;5070861;28;20028;-69
2023/12/30 14:41:28;;;;;;;2.20;0.80;;;;;;;;;;5070327;28;20123;-69
2023/12/30 14:43:54;;;;;;;3.83;1.67;;;;;;;;;;5070373;28;20123;-69
2023/12/30 14:46:20;;;;;;;3.67;1.05;;;;;;;;;;5069941;28;20461;-68
2023/12/30 14:48:46;;;;;;;4.93;1.75;;;;;;;;;;5070316;28;20399;-68
2023/12/30 14:51:12;;;;;;;2.40;0.70;;;;;;;;;;5071938;28;20412;-69